Time;durP1;ratioP1;P1;durP2;ratioP2;P2;SDS_P1;SDS_P2;PMS_P1;PMS_P2;Temp;Humidity;BMP_temperature;BMP_pressure;BME280_temperature;BME280_humidity;BME280_pressure;Samples;Min_cycle;Max_cycle;Signal;HPM_P1;HPM_P2
2021/09/29 00:00:25;;;;;;;7.70;3.90;;;13.80;99.90;;;;;;5046003;28;20252;-66
2021/09/29 00:02:53;;;;;;;7.53;3.73;;;13.70;99.90;;;;;;5038586;28;20303;-66
2021/09/29 00:05:23;;;;;;;10.07;4.00;;;13.70;99.90;;;;;;5063798;28;20203;-65
2021/09/29 00:07:51;;;;;;;4.27;3.57;;;13.70;99.90;;;;;;5037604;28;20743;-66
2021/09/29 00:10:20;;;;;;;8.13;3.73;;;13.70;99.90;;;;;;5034856;28;20200;-65
2021/09/29 00:12:49;;;;;;;6.63;3.30;;;13.70;99.90;;;;;;5033091;28;20283;-66
2021/09/29 00:15:18;;;;;;;3.70;3.17;;;13.70;99.90;;;;;;5038123;28;20346;-66
2021/09/29 00:17:47;;;;;;;4.83;3.10;;;13.80;99.90;;;;;;5047280;28;20672;-66
2021/09/29 00:20:17;;;;;;;6.70;3.10;;;13.90;99.90;;;;;;5054858;28;20201;-66
2021/09/29 00:22:49;;;;;;;3.93;3.00;;;13.90;99.90;;;;;;5041347;28;20658;-66
2021/09/29 00:25:19;;;;;;;4.50;2.90;;;13.80;99.90;;;;;;5034487;28;20690;-66
2021/09/29 00:27:50;;;;;;;7.43;3.13;;;13.90;99.90;;;;;;5045030;28;20267;-66
2021/09/29 00:30:19;;;;;;;6.00;3.40;;;13.80;99.90;;;;;;5049762;28;20196;-66
2021/09/29 00:32:48;;;;;;;11.60;3.47;;;13.80;99.90;;;;;;5036704;28;20619;-66
2021/09/29 00:35:16;;;;;;;8.67;3.20;;;13.80;99.90;;;;;;5037223;28;20309;-66
2021/09/29 00:37:46;;;;;;;4.97;3.10;;;13.80;99.90;;;;;;5036107;28;20300;-66
2021/09/29 00:40:14;;;;;;;7.23;3.20;;;13.80;99.90;;;;;;5038603;28;20192;-66
2021/09/29 00:42:43;;;;;;;6.70;2.87;;;13.70;99.90;;;;;;5039220;28;20244;-66
2021/09/29 00:45:11;;;;;;;4.53;2.90;;;13.80;99.90;;;;;;5032441;28;20647;-65
2021/09/29 00:47:40;;;;;;;6.07;2.97;;;13.70;99.90;;;;;;5049033;28;20199;-66
2021/09/29 00:50:11;;;;;;;5.60;2.63;;;13.70;99.90;;;;;;5032627;28;20254;-66
2021/09/29 00:52:42;;;;;;;4.37;2.60;;;13.80;99.90;;;;;;5037492;28;20561;-66
2021/09/29 00:55:14;;;;;;;5.70;2.70;;;13.80;99.90;;;;;;5035141;28;20320;-66
2021/09/29 00:57:43;;;;;;;5.17;3.10;;;13.70;99.90;;;;;;5049823;28;20639;-66
2021/09/29 01:00:12;;;;;;;5.63;3.17;;;13.70;99.90;;;;;;5035078;28;20219;-66
2021/09/29 01:02:41;;;;;;;5.10;2.60;;;13.80;99.90;;;;;;5032197;28;20208;-66
2021/09/29 01:05:12;;;;;;;3.20;2.60;;;13.80;99.90;;;;;;5037270;28;20627;-66
2021/09/29 01:07:49;;;;;;;4.97;3.07;;;13.80;99.90;;;;;;5036199;28;20192;-66
2021/09/29 01:10:26;;;;;;;3.80;2.67;;;13.80;99.90;;;;;;5039388;28;20193;-66
2021/09/29 01:13:02;;;;;;;2.83;2.53;;;13.80;99.90;;;;;;5039547;28;20200;-66
2021/09/29 01:15:35;;;;;;;6.87;2.87;;;13.80;99.90;;;;;;5030961;28;20227;-66
2021/09/29 01:18:08;;;;;;;5.03;3.07;;;13.80;99.90;;;;;;5035283;28;20209;-66
2021/09/29 01:20:42;;;;;;;6.43;2.77;;;13.80;99.90;;;;;;5028933;28;20283;-66
2021/09/29 01:23:33;;;;;;;10.87;3.23;;;13.80;99.90;;;;;;5035873;28;20331;-66
2021/09/29 01:26:13;;;;;;;8.10;3.10;;;13.80;99.90;;;;;;5067030;28;20291;-66
2021/09/29 01:28:46;;;;;;;5.93;3.43;;;13.80;99.90;;;;;;5034283;28;20259;-66
2021/09/29 01:31:17;;;;;;;6.83;3.40;;;13.80;99.90;;;;;;5035646;28;20193;-66
2021/09/29 01:33:47;;;;;;;6.33;3.33;;;13.70;99.90;;;;;;5037026;28;20185;-66
2021/09/29 01:36:18;;;;;;;6.43;3.57;;;13.80;99.90;;;;;;5033571;28;20205;-66
2021/09/29 01:38:50;;;;;;;7.83;3.47;;;13.80;99.90;;;;;;5031126;28;20197;-66
2021/09/29 01:41:20;;;;;;;8.30;3.73;;;13.80;99.90;;;;;;5024237;28;20193;-66
2021/09/29 01:43:48;;;;;;;6.23;3.43;;;13.70;99.90;;;;;;5034055;28;20410;-66
2021/09/29 01:46:19;;;;;;;7.73;3.90;;;13.70;99.90;;;;;;5032287;28;20220;-66
2021/09/29 01:48:54;;;;;;;5.80;3.70;;;13.70;99.90;;;;;;5036306;28;20211;-66
2021/09/29 01:51:25;;;;;;;9.60;3.87;;;13.60;99.90;;;;;;5036783;28;20227;-66
2021/09/29 01:53:56;;;;;;;9.03;4.10;;;13.60;99.90;;;;;;5040099;28;20239;-66
2021/09/29 01:56:27;;;;;;;6.40;3.53;;;13.70;99.90;;;;;;5030298;28;20253;-66
2021/09/29 01:58:55;;;;;;;9.63;3.10;;;13.70;99.90;;;;;;5033603;28;20246;-66
2021/09/29 02:01:24;;;;;;;4.43;3.27;;;13.70;99.90;;;;;;5031469;28;20190;-65
2021/09/29 02:03:53;;;;;;;4.37;2.50;;;13.70;99.90;;;;;;5030266;28;20229;-65
2021/09/29 02:06:22;;;;;;;5.60;2.43;;;13.60;99.90;;;;;;5028113;28;20214;-66
2021/09/29 02:08:50;;;;;;;7.20;2.53;;;13.60;99.90;;;;;;5029824;28;20201;-66
2021/09/29 02:11:18;;;;;;;4.83;2.40;;;13.60;99.90;;;;;;5027432;28;20225;-66
2021/09/29 02:13:48;;;;;;;6.83;2.53;;;13.60;99.90;;;;;;5035952;28;20236;-66
2021/09/29 02:16:17;;;;;;;7.43;2.23;;;13.60;99.90;;;;;;5029254;28;20432;-66
2021/09/29 02:18:46;;;;;;;7.03;2.07;;;13.50;99.90;;;;;;5032417;28;20224;-66
2021/09/29 02:21:27;;;;;;;1.80;1.70;;;13.40;99.90;;;;;;5043025;28;20234;-65
2021/09/29 02:24:36;;;;;;;2.80;1.57;;;13.40;99.90;;;;;;5024918;28;20212;-66
2021/09/29 02:27:06;;;;;;;2.07;1.60;;;13.40;99.90;;;;;;5029002;28;20343;-66
2021/09/29 02:29:38;;;;;;;5.03;2.10;;;13.40;99.90;;;;;;5027568;28;20220;-66
2021/09/29 02:32:08;;;;;;;2.97;1.80;;;13.40;99.90;;;;;;5032533;28;20284;-66
2021/09/29 02:34:36;;;;;;;5.03;1.80;;;13.40;99.90;;;;;;5031167;28;20479;-65
2021/09/29 02:37:05;;;;;;;4.70;1.67;;;13.40;99.90;;;;;;5047814;28;20317;-66
2021/09/29 02:39:36;;;;;;;5.23;1.73;;;13.40;99.90;;;;;;5042281;28;20193;-66
2021/09/29 02:42:05;;;;;;;4.73;1.70;;;13.30;99.90;;;;;;5040161;28;20246;-65
2021/09/29 02:44:35;;;;;;;5.93;1.90;;;13.30;99.90;;;;;;5034825;28;20205;-66
2021/09/29 02:47:04;;;;;;;8.37;2.40;;;13.20;99.90;;;;;;5028724;28;20193;-66
2021/09/29 02:49:33;;;;;;;6.13;1.63;;;13.20;99.90;;;;;;5027701;28;20205;-66
2021/09/29 02:52:01;;;;;;;4.87;1.93;;;13.20;99.90;;;;;;5028932;28;20247;-66
2021/09/29 02:54:29;;;;;;;5.60;1.67;;;13.10;99.90;;;;;;5059472;28;20193;-65
2021/09/29 02:56:58;;;;;;;4.27;1.80;;;13.10;99.90;;;;;;5039224;28;20246;-66
2021/09/29 02:59:26;;;;;;;3.37;1.93;;;13.10;99.90;;;;;;5030779;28;20415;-66
2021/09/29 03:01:56;;;;;;;4.53;2.10;;;13.00;99.90;;;;;;5057582;28;20191;-66
2021/09/29 03:04:24;;;;;;;4.70;2.00;;;13.00;99.90;;;;;;5035226;28;20228;-66
2021/09/29 03:06:53;;;;;;;5.43;2.00;;;13.10;99.90;;;;;;5022975;28;20221;-66
2021/09/29 03:09:21;;;;;;;3.63;1.60;;;13.10;99.90;;;;;;5026821;28;20612;-66
2021/09/29 03:11:50;;;;;;;4.50;1.60;;;13.10;99.90;;;;;;5035115;28;20201;-66
2021/09/29 03:14:18;;;;;;;3.47;2.10;;;13.10;99.90;;;;;;5035087;28;20200;-66
2021/09/29 03:17:04;;;;;;;6.70;1.87;;;13.10;99.90;;;;;;5055407;28;20299;-66
2021/09/29 03:19:33;;;;;;;4.10;1.83;;;13.10;99.90;;;;;;5029404;28;20224;-66
2021/09/29 03:22:02;;;;;;;4.00;1.67;;;13.10;99.90;;;;;;5031359;28;20909;-66
2021/09/29 03:24:31;;;;;;;5.00;1.80;;;13.10;99.90;;;;;;5032106;28;20201;-65
2021/09/29 03:26:59;;;;;;;5.83;1.90;;;13.20;99.90;;;;;;5034269;28;20189;-66
2021/09/29 03:29:28;;;;;;;3.70;1.67;;;13.20;99.90;;;;;;5032383;28;20308;-65
2021/09/29 03:31:56;;;;;;;4.17;1.80;;;13.20;99.90;;;;;;5035727;28;20197;-66
2021/09/29 03:34:28;;;;;;;6.23;1.80;;;13.20;99.90;;;;;;5035891;28;20232;-66
2021/09/29 03:36:57;;;;;;;6.43;1.70;;;13.20;99.90;;;;;;5034345;28;20285;-66
2021/09/29 03:39:25;;;;;;;6.63;1.80;;;13.20;99.90;;;;;;5033210;28;20200;-66
2021/09/29 03:41:54;;;;;;;5.70;2.00;;;13.20;99.90;;;;;;5028979;28;20284;-66
2021/09/29 03:44:22;;;;;;;6.17;1.70;;;13.30;99.90;;;;;;5033796;28;20414;-66
2021/09/29 03:46:51;;;;;;;4.33;2.10;;;13.20;99.90;;;;;;5032713;28;20197;-66
2021/09/29 03:49:19;;;;;;;6.30;1.63;;;13.20;99.90;;;;;;5036609;28;20243;-66
2021/09/29 03:51:48;;;;;;;9.83;1.80;;;13.30;99.90;;;;;;5033612;28;20201;-66
2021/09/29 03:54:17;;;;;;;3.57;1.70;;;13.20;99.90;;;;;;5038910;28;20749;-65
2021/09/29 03:56:46;;;;;;;3.87;1.77;;;13.30;99.90;;;;;;5036925;28;20201;-66
2021/09/29 03:59:14;;;;;;;8.13;1.60;;;13.30;99.90;;;;;;5037239;28;20591;-66
2021/09/29 04:01:43;;;;;;;3.13;1.60;;;13.20;99.90;;;;;;5037266;28;20247;-66
2021/09/29 04:04:12;;;;;;;3.53;2.30;;;13.20;99.90;;;;;;5024969;28;20239;-66
2021/09/29 04:06:40;;;;;;;6.07;1.70;;;13.20;99.90;;;;;;5032505;28;20269;-65
2021/09/29 04:09:10;;;;;;;3.63;1.87;;;13.20;99.90;;;;;;5037998;28;20193;-66
2021/09/29 04:11:39;;;;;;;3.60;1.80;;;13.20;99.90;;;;;;5034531;28;20287;-66
2021/09/29 04:14:48;;;;;;;3.23;1.50;;;13.20;99.90;;;;;;5034469;28;20562;-66
2021/09/29 04:18:00;;;;;;;2.00;1.70;;;13.20;99.90;;;;;;5028966;28;20282;-66
2021/09/29 04:20:28;;;;;;;4.00;2.10;;;13.10;99.90;;;;;;5032598;28;20231;-66
2021/09/29 04:23:39;;;;;;;4.63;1.97;;;13.10;99.90;;;;;;5031478;28;20694;-66
2021/09/29 04:26:09;;;;;;;9.77;1.93;;;13.00;99.90;;;;;;5039458;28;20229;-66
2021/09/29 04:28:37;;;;;;;5.23;1.90;;;12.90;99.90;;;;;;5036611;28;20578;-65
2021/09/29 04:31:06;;;;;;;4.83;2.00;;;12.90;99.90;;;;;;5035328;28;20201;-65
2021/09/29 04:33:35;;;;;;;5.93;1.90;;;12.90;99.90;;;;;;5034162;28;20288;-65
2021/09/29 04:36:04;;;;;;;5.60;2.17;;;12.90;99.90;;;;;;5039665;28;20308;-65
2021/09/29 04:38:32;;;;;;;2.60;1.97;;;12.80;99.90;;;;;;5039670;28;20224;-66
2021/09/29 04:41:01;;;;;;;2.93;1.93;;;12.80;99.90;;;;;;5042285;28;20655;-66
2021/09/29 04:43:31;;;;;;;8.63;2.07;;;12.80;99.90;;;;;;5033218;28;20267;-65
2021/09/29 04:45:59;;;;;;;4.67;2.27;;;12.70;99.90;;;;;;5047255;28;20263;-66
2021/09/29 04:48:27;;;;;;;2.10;2.00;;;12.70;99.90;;;;;;5059822;28;20662;-65
2021/09/29 04:50:56;;;;;;;4.43;1.90;;;12.70;99.90;;;;;;5037290;28;20229;-65
2021/09/29 04:53:24;;;;;;;7.57;2.47;;;12.70;99.90;;;;;;5015558;28;20247;-65
2021/09/29 04:55:53;;;;;;;8.23;2.63;;;12.70;99.90;;;;;;5031019;28;20618;-66
2021/09/29 04:58:21;;;;;;;8.23;2.60;;;12.60;99.90;;;;;;5032052;28;20723;-66
2021/09/29 05:00:51;;;;;;;8.10;2.20;;;12.60;99.90;;;;;;5057277;28;20289;-66
2021/09/29 05:03:29;;;;;;;3.53;2.43;;;12.60;99.90;;;;;;5026976;28;20324;-66
2021/09/29 05:05:57;;;;;;;11.00;2.93;;;12.50;99.90;;;;;;5037702;28;20267;-66
2021/09/29 05:08:29;;;;;;;2.33;2.07;;;12.40;99.90;;;;;;5032835;28;20462;-66
2021/09/29 05:11:03;;;;;;;2.47;2.00;;;12.40;99.90;;;;;;5037729;28;20756;-66
2021/09/29 05:13:33;;;;;;;6.97;2.47;;;12.30;99.90;;;;;;5029216;28;20200;-66
2021/09/29 05:16:04;;;;;;;6.00;2.17;;;12.30;99.90;;;;;;5029076;28;20594;-66
2021/09/29 05:18:33;;;;;;;3.13;2.10;;;12.30;99.90;;;;;;5032657;28;20194;-66
2021/09/29 05:21:02;;;;;;;2.53;2.10;;;12.20;99.90;;;;;;5031099;28;20228;-67
2021/09/29 05:23:33;;;;;;;4.93;1.90;;;12.20;99.90;;;;;;5032374;28;20201;-66
2021/09/29 05:26:02;;;;;;;3.13;2.00;;;12.10;99.90;;;;;;5031925;28;20208;-66
2021/09/29 05:28:33;;;;;;;2.87;2.17;;;12.10;99.90;;;;;;5031247;28;20247;-67
2021/09/29 05:31:03;;;;;;;2.10;2.00;;;12.10;99.90;;;;;;5028120;28;20603;-66
2021/09/29 05:33:32;;;;;;;4.87;2.23;;;12.00;99.90;;;;;;5033599;28;20763;-66
2021/09/29 05:36:00;;;;;;;3.70;2.10;;;12.10;99.90;;;;;;5038178;28;20282;-66
2021/09/29 05:38:28;;;;;;;1.97;1.80;;;12.00;99.90;;;;;;5034890;28;20193;-66
2021/09/29 05:40:57;;;;;;;3.77;2.50;;;12.00;99.90;;;;;;5029234;28;20463;-66
2021/09/29 05:43:25;;;;;;;5.47;1.93;;;11.90;99.90;;;;;;5032945;28;20604;-67
2021/09/29 05:45:54;;;;;;;2.67;1.67;;;11.90;99.90;;;;;;5032294;28;20209;-66
2021/09/29 05:48:24;;;;;;;2.50;1.70;;;11.80;99.90;;;;;;5034727;28;20261;-66
2021/09/29 05:50:52;;;;;;;2.53;1.60;;;11.80;99.90;;;;;;5032523;28;20205;-67
2021/09/29 05:53:21;;;;;;;2.80;1.30;;;11.70;99.90;;;;;;5029316;28;20245;-66
2021/09/29 05:55:49;;;;;;;2.77;1.40;;;11.70;99.90;;;;;;5027078;28;20193;-67
2021/09/29 05:58:17;;;;;;;2.77;1.37;;;11.60;99.90;;;;;;5030101;28;20434;-66
2021/09/29 06:00:46;;;;;;;3.03;1.30;;;11.60;99.90;;;;;;5031329;28;20602;-66
2021/09/29 06:03:15;;;;;;;2.37;1.50;;;11.60;99.90;;;;;;5031978;28;20780;-66
2021/09/29 06:05:46;;;;;;;2.13;1.60;;;11.60;99.90;;;;;;5033573;28;20233;-66
2021/09/29 06:08:15;;;;;;;1.40;1.20;;;11.60;99.90;;;;;;5036399;28;20228;-67
2021/09/29 06:10:43;;;;;;;3.73;1.57;;;11.70;99.90;;;;;;5038830;28;20206;-66
2021/09/29 06:13:12;;;;;;;2.63;1.60;;;11.70;99.90;;;;;;5030250;28;20236;-67
2021/09/29 06:15:42;;;;;;;1.43;1.33;;;11.60;99.90;;;;;;5030790;28;20243;-66
2021/09/29 06:18:14;;;;;;;1.40;1.30;;;11.50;99.90;;;;;;5037146;28;20288;-67
2021/09/29 06:20:46;;;;;;;2.60;1.47;;;11.50;99.90;;;;;;5042860;28;20712;-66
2021/09/29 06:23:15;;;;;;;1.30;1.30;;;11.40;99.90;;;;;;5036987;28;20676;-66
2021/09/29 06:25:44;;;;;;;1.17;1.17;;;11.40;99.90;;;;;;5031830;28;20522;-66
2021/09/29 06:28:13;;;;;;;1.07;1.07;;;11.40;99.90;;;;;;5036932;28;20288;-66
2021/09/29 06:30:41;;;;;;;1.33;1.20;;;11.40;99.90;;;;;;5031496;28;20382;-66
2021/09/29 06:33:10;;;;;;;1.43;1.30;;;11.40;99.90;;;;;;5024770;28;20194;-66
2021/09/29 06:35:38;;;;;;;1.40;1.30;;;11.50;99.90;;;;;;5031153;28;20208;-66
2021/09/29 06:38:10;;;;;;;2.73;1.20;;;11.50;99.90;;;;;;5031052;28;20201;-66
2021/09/29 06:40:38;;;;;;;2.83;1.60;;;11.50;99.90;;;;;;5064412;28;20250;-66
2021/09/29 06:43:06;;;;;;;1.20;1.20;;;11.40;99.90;;;;;;5037631;28;20231;-67
2021/09/29 06:45:35;;;;;;;3.33;1.60;;;11.40;99.90;;;;;;5027804;28;20217;-66
2021/09/29 06:48:04;;;;;;;2.00;1.80;;;11.40;99.90;;;;;;5025623;28;20762;-66
2021/09/29 06:50:32;;;;;;;2.60;1.67;;;11.40;99.90;;;;;;5020762;28;20209;-67
2021/09/29 06:53:01;;;;;;;2.00;1.67;;;11.40;99.90;;;;;;5024027;28;20202;-66
2021/09/29 06:55:31;;;;;;;1.73;1.60;;;11.40;99.90;;;;;;5027820;28;20708;-67
2021/09/29 06:57:59;;;;;;;1.60;1.50;;;11.40;99.90;;;;;;5031055;28;20249;-66
2021/09/29 07:00:28;;;;;;;2.83;1.97;;;11.40;99.90;;;;;;5015161;28;20217;-67
2021/09/29 07:02:57;;;;;;;1.63;1.60;;;11.40;99.90;;;;;;5034664;28;20433;-66
2021/09/29 07:05:26;;;;;;;1.83;1.73;;;11.50;99.90;;;;;;5031878;28;20580;-67
2021/09/29 07:07:56;;;;;;;1.60;1.50;;;11.50;99.90;;;;;;5036802;28;20232;-66
2021/09/29 07:10:27;;;;;;;3.60;1.43;;;11.50;99.90;;;;;;5033193;28;20930;-67
2021/09/29 07:12:58;;;;;;;2.17;1.70;;;11.50;99.90;;;;;;5030454;28;20189;-66
2021/09/29 07:15:27;;;;;;;1.70;1.60;;;11.50;99.90;;;;;;5034148;28;20192;-67
2021/09/29 07:17:59;;;;;;;1.40;1.40;;;11.50;99.90;;;;;;5035194;28;20200;-67
2021/09/29 07:20:29;;;;;;;1.40;1.30;;;11.50;99.90;;;;;;5032343;28;20220;-66
2021/09/29 07:22:58;;;;;;;1.50;1.50;;;11.50;99.90;;;;;;5063173;28;20197;-66
2021/09/29 07:25:28;;;;;;;1.77;1.10;;;11.60;99.90;;;;;;5035609;28;20201;-66
2021/09/29 07:27:58;;;;;;;2.87;1.50;;;11.70;99.90;;;;;;5033713;28;20254;-67
2021/09/29 07:30:28;;;;;;;1.30;1.20;;;11.70;99.90;;;;;;5036030;28;20205;-67
2021/09/29 07:33:02;;;;;;;1.47;1.37;;;11.70;99.90;;;;;;5031874;28;20195;-65
2021/09/29 07:35:31;;;;;;;2.77;1.30;;;11.80;99.90;;;;;;5037879;28;20255;-66
2021/09/29 07:38:00;;;;;;;1.67;1.20;;;11.90;99.90;;;;;;5035643;28;20200;-66
2021/09/29 07:40:29;;;;;;;1.17;1.17;;;11.90;99.90;;;;;;5030809;28;20461;-66
2021/09/29 07:42:59;;;;;;;1.43;1.33;;;12.00;99.90;;;;;;5032281;28;20267;-66
2021/09/29 07:45:27;;;;;;;2.67;1.47;;;12.00;99.90;;;;;;5035249;28;20201;-67
2021/09/29 07:47:56;;;;;;;1.20;1.00;;;12.00;99.90;;;;;;5030588;28;20200;-66
2021/09/29 07:50:25;;;;;;;1.27;1.27;;;12.00;99.90;;;;;;5029387;28;20725;-66
2021/09/29 07:52:54;;;;;;;1.10;1.10;;;12.00;99.90;;;;;;5033122;28;20196;-66
2021/09/29 07:55:22;;;;;;;2.83;1.40;;;12.00;99.90;;;;;;5032410;28;20255;-66
2021/09/29 07:57:51;;;;;;;1.40;1.30;;;12.00;99.90;;;;;;5032673;28;20246;-67
2021/09/29 08:00:21;;;;;;;1.60;1.47;;;12.00;99.90;;;;;;5026869;28;20201;-67
2021/09/29 08:02:50;;;;;;;1.60;1.60;;;12.10;99.90;;;;;;5023733;28;20588;-66
2021/09/29 08:05:21;;;;;;;3.60;1.90;;;12.10;99.90;;;;;;5036239;28;20235;-66
2021/09/29 08:07:50;;;;;;;2.10;2.00;;;12.20;99.90;;;;;;5033037;28;20782;-67
2021/09/29 08:10:20;;;;;;;2.53;2.43;;;12.20;99.90;;;;;;5033195;28;20201;-67
2021/09/29 08:12:54;;;;;;;2.90;2.10;;;12.20;99.90;;;;;;5034996;28;20200;-67
2021/09/29 08:15:23;;;;;;;2.43;2.20;;;12.20;99.90;;;;;;5032437;28;20184;-67
2021/09/29 08:17:55;;;;;;;3.20;2.60;;;12.30;99.90;;;;;;5033495;28;20240;-66
2021/09/29 08:20:27;;;;;;;3.07;2.77;;;12.30;99.90;;;;;;5033299;28;20189;-67
2021/09/29 08:23:00;;;;;;;3.17;2.53;;;12.40;99.90;;;;;;5033342;28;20258;-66
2021/09/29 08:25:45;;;;;;;4.07;2.80;;;12.40;99.90;;;;;;5037832;28;20641;-67
2021/09/29 08:28:25;;;;;;;3.17;2.93;;;12.50;99.90;;;;;;5031641;28;20264;-67
2021/09/29 08:36:32;;;;;;;3.87;3.30;;;12.90;99.90;;;;;;5017639;28;20241;-67
2021/09/29 08:39:04;;;;;;;6.37;3.70;;;13.00;99.90;;;;;;5022210;28;21565;-67
2021/09/29 08:41:50;;;;;;;7.07;3.50;;;13.10;99.90;;;;;;5030195;28;20215;-66
2021/09/29 08:44:23;;;;;;;3.93;3.73;;;13.30;99.90;;;;;;5034895;28;20288;-67
2021/09/29 08:47:09;;;;;;;4.53;4.03;;;13.30;99.90;;;;;;5027576;28;20237;-67
2021/09/29 08:49:55;;;;;;;4.40;3.50;;;13.50;99.90;;;;;;5034734;28;20244;-68
2021/09/29 08:55:41;;;;;;;9.00;3.80;;;13.60;99.90;;;;;;5027449;28;20197;-67
2021/09/29 09:17:53;;;;;;;3.37;2.77;;;13.90;99.90;;;;;;5055054;28;20186;-66
2021/09/29 09:20:25;;;;;;;3.10;2.83;;;14.10;99.90;;;;;;5029066;28;20193;-68
2021/09/29 09:22:56;;;;;;;6.87;2.90;;;14.20;99.90;;;;;;5025550;28;20612;-67
2021/09/29 09:25:38;;;;;;;3.33;3.00;;;14.20;99.90;;;;;;5033407;28;20232;-67
2021/09/29 09:28:10;;;;;;;4.30;2.40;;;14.00;99.90;;;;;;5030326;28;20272;-69
2021/09/29 09:30:40;;;;;;;3.63;2.97;;;14.00;99.90;;;;;;5025776;28;20228;-67
2021/09/29 09:33:08;;;;;;;2.93;2.70;;;14.10;99.90;;;;;;5032210;28;21117;-68
2021/09/29 09:35:47;;;;;;;2.70;2.40;;;14.10;99.90;;;;;;5026760;28;20710;-68
2021/09/29 09:38:20;;;;;;;6.00;2.70;;;14.20;99.90;;;;;;5033044;28;20285;-68
2021/09/29 09:40:54;;;;;;;7.73;2.43;;;14.40;99.90;;;;;;5028405;28;20288;-68
2021/09/29 09:43:25;;;;;;;2.60;2.40;;;14.40;99.90;;;;;;5028778;28;20606;-67
2021/09/29 09:45:54;;;;;;;5.30;2.77;;;14.40;99.90;;;;;;5034532;28;20225;-67
2021/09/29 09:48:26;;;;;;;3.53;2.37;;;14.50;99.90;;;;;;5034163;28;20274;-67
2021/09/29 09:51:13;;;;;;;2.70;2.50;;;14.70;99.90;;;;;;5036935;28;20538;-67
2021/09/29 09:53:41;;;;;;;3.87;2.67;;;15.00;99.90;;;;;;5038554;28;20201;-67
2021/09/29 09:56:15;;;;;;;5.20;2.90;;;15.10;99.90;;;;;;5033744;28;20515;-66
2021/09/29 09:58:47;;;;;;;3.80;2.40;;;15.10;99.90;;;;;;5029732;28;20190;-66
2021/09/29 10:01:18;;;;;;;2.17;2.07;;;15.40;99.90;;;;;;5024514;28;20208;-67
2021/09/29 10:03:47;;;;;;;2.07;1.90;;;15.50;99.90;;;;;;5030399;28;20228;-67
2021/09/29 10:06:19;;;;;;;2.30;1.10;;;15.20;99.90;;;;;;5034079;28;20192;-67
2021/09/29 10:08:55;;;;;;;2.80;1.20;;;14.10;99.90;;;;;;5032364;28;20298;-67
2021/09/29 10:11:27;;;;;;;4.20;1.33;;;13.00;99.90;;;;;;5029062;28;20244;-67
2021/09/29 10:14:17;;;;;;;1.50;1.40;;;12.20;99.90;;;;;;5036618;28;20197;-67
2021/09/29 10:28:01;;;;;;;2.43;2.33;;;10.70;99.90;;;;;;5048845;28;20241;-67
2021/09/29 10:30:34;;;;;;;7.33;2.60;;;10.80;99.90;;;;;;5043424;28;20682;-68
2021/09/29 10:33:04;;;;;;;8.77;3.27;;;11.00;99.90;;;;;;5021227;28;20654;-68
2021/09/29 10:35:47;;;;;;;4.27;2.73;;;11.20;99.90;;;;;;5034678;28;20288;-67
2021/09/29 10:41:23;;;;;;;3.13;2.70;;;11.40;99.90;;;;;;5024891;28;20185;-67
2021/09/29 10:44:03;;;;;;;4.33;2.17;;;11.40;99.90;;;;;;5026654;28;20724;-67
2021/09/29 10:46:49;;;;;;;5.53;2.10;;;11.40;99.90;;;;;;5042937;28;20216;-66
2021/09/29 10:49:31;;;;;;;3.53;2.10;;;11.50;99.90;;;;;;5026445;28;21851;-67
2021/09/29 11:31:46;;;;;;;3.37;1.80;;;12.80;99.90;;;;;;5066348;28;20208;-70
2021/09/29 11:34:20;;;;;;;4.53;1.50;;;13.10;99.90;;;;;;5066663;28;20203;-70
2021/09/29 11:37:11;;;;;;;5.43;1.80;;;13.30;99.90;;;;;;5069911;28;20596;-70
2021/09/29 12:08:03;;;;;;;2.50;1.63;;;14.70;99.90;;;;;;5069698;28;20314;-69
2021/09/29 12:10:31;;;;;;;2.90;1.43;;;14.60;99.90;;;;;;5073903;28;20201;-70
2021/09/29 12:13:04;;;;;;;1.67;1.40;;;14.30;99.90;;;;;;5072194;28;20208;-69
2021/09/29 12:15:44;;;;;;;8.80;2.03;;;14.20;99.90;;;;;;5072383;28;20585;-69
2021/09/29 12:18:13;;;;;;;2.70;1.33;;;14.00;99.90;;;;;;5069986;28;20176;-69
2021/09/29 12:20:51;;;;;;;1.83;1.10;;;14.00;99.90;;;;;;5054854;28;20718;-69
2021/09/29 12:23:22;;;;;;;0.80;0.80;;;13.90;99.90;;;;;;5053742;28;20191;-69
2021/09/29 12:25:54;;;;;;;2.57;1.07;;;14.10;99.90;;;;;;5059175;28;20655;-69
2021/09/29 12:28:33;;;;;;;1.20;1.20;;;14.50;99.90;;;;;;5057368;28;20268;-68
2021/09/29 12:33:56;;;;;;;2.83;1.20;;;14.70;99.90;;;;;;5056037;28;20265;-69
2021/09/29 12:36:29;;;;;;;2.13;1.00;;;14.60;99.90;;;;;;5058892;28;20666;-68
2021/09/29 12:38:58;;;;;;;1.67;1.20;;;14.00;99.90;;;;;;5059085;28;20192;-68
2021/09/29 12:41:28;;;;;;;1.17;1.00;;;13.60;99.90;;;;;;5058078;28;20196;-69
2021/09/29 12:44:04;;;;;;;0.93;0.93;;;13.20;99.90;;;;;;5056847;28;20259;-69
2021/09/29 12:46:35;;;;;;;1.10;0.90;;;13.00;99.90;;;;;;5046955;28;20195;-70
2021/09/29 12:49:10;;;;;;;2.67;1.23;;;12.90;99.90;;;;;;5061583;28;20240;-70
2021/09/29 12:51:43;;;;;;;3.73;1.00;;;12.80;99.90;;;;;;5059543;28;20208;-70
2021/09/29 12:54:16;;;;;;;2.67;1.23;;;12.90;99.90;;;;;;5056251;28;20201;-70
2021/09/29 12:56:45;;;;;;;1.23;1.20;;;13.20;99.90;;;;;;5056798;28;20567;-68
2021/09/29 12:59:13;;;;;;;1.10;1.00;;;13.30;99.90;;;;;;5054365;28;20189;-69
2021/09/29 13:01:43;;;;;;;2.57;1.50;;;13.10;99.90;;;;;;5055251;28;20197;-69
2021/09/29 13:04:12;;;;;;;2.83;1.23;;;13.00;99.90;;;;;;5059333;28;20192;-69
2021/09/29 13:06:41;;;;;;;1.50;1.00;;;12.90;99.90;;;;;;5055450;28;20196;-69
2021/09/29 13:09:10;;;;;;;4.47;1.50;;;12.90;99.90;;;;;;5052090;28;20223;-69
2021/09/29 13:11:39;;;;;;;3.80;1.20;;;13.00;99.90;;;;;;5056413;28;20192;-69
2021/09/29 13:14:08;;;;;;;1.17;1.00;;;13.30;99.90;;;;;;5056477;28;20645;-69
2021/09/29 13:16:36;;;;;;;2.67;1.13;;;13.70;99.90;;;;;;5055312;28;20242;-69
2021/09/29 13:19:10;;;;;;;1.40;1.07;;;14.10;99.90;;;;;;5060280;28;20197;-69
2021/09/29 13:21:59;;;;;;;3.47;1.10;;;14.50;99.90;;;;;;5057152;28;20195;-68
2021/09/29 13:24:35;;;;;;;1.53;1.00;;;14.70;99.90;;;;;;5056817;28;20184;-69
2021/09/29 13:27:25;;;;;;;2.67;1.10;;;14.80;99.90;;;;;;5056612;28;20196;-69
2021/09/29 13:38:32;;;;;;;8.17;1.20;;;15.20;99.90;;;;;;5056740;28;20187;-67
2021/09/29 13:41:00;;;;;;;1.00;1.00;;;15.20;99.90;;;;;;5069351;28;20213;-67
2021/09/29 13:43:28;;;;;;;1.93;1.07;;;15.20;99.90;;;;;;5063353;28;20614;-66
2021/09/29 13:45:57;;;;;;;1.73;1.20;;;15.20;99.90;;;;;;5056540;28;20199;-68
2021/09/29 13:48:25;;;;;;;3.23;1.20;;;15.20;99.90;;;;;;5049707;28;20311;-66
2021/09/29 13:50:55;;;;;;;5.33;1.33;;;15.40;99.90;;;;;;5059499;28;20200;-66
2021/09/29 13:53:26;;;;;;;1.27;1.13;;;15.50;99.90;;;;;;5051176;28;20548;-66
2021/09/29 13:55:58;;;;;;;1.97;1.00;;;15.60;99.90;;;;;;5056347;28;20263;-67
2021/09/29 13:58:46;;;;;;;1.23;1.00;;;15.70;99.90;;;;;;5054971;28;20188;-67
2021/09/29 14:01:38;;;;;;;2.97;1.30;;;15.50;99.90;;;;;;5055701;28;20345;-67
2021/09/29 14:29:13;;;;;;;2.80;1.73;;;14.50;99.90;;;;;;5055819;28;20732;-67
2021/09/29 14:31:50;;;;;;;2.40;1.40;;;14.40;99.90;;;;;;5059852;28;20202;-67
2021/09/29 14:34:19;;;;;;;5.23;1.30;;;14.30;99.90;;;;;;5056670;28;20345;-67
2021/09/29 14:36:47;;;;;;;4.37;1.60;;;14.20;99.90;;;;;;5053467;28;20443;-67
2021/09/29 14:39:18;;;;;;;5.57;1.83;;;14.10;99.90;;;;;;5058882;28;20187;-67
2021/09/29 14:41:46;;;;;;;3.17;1.30;;;14.40;99.90;;;;;;5053785;28;20270;-67
2021/09/29 14:44:16;;;;;;;6.03;1.67;;;14.90;99.90;;;;;;5054379;28;20206;-68
2021/09/29 14:46:44;;;;;;;4.10;1.33;;;15.30;99.90;;;;;;5090987;27;20268;-68
2021/09/29 14:49:13;;;;;;;2.40;1.40;;;15.60;99.90;;;;;;5054075;28;20977;-68
2021/09/29 14:51:41;;;;;;;3.77;1.60;;;15.70;99.90;;;;;;5059364;28;20206;-67
2021/09/29 14:54:10;;;;;;;3.20;1.37;;;15.80;99.90;;;;;;5058841;28;20503;-67
2021/09/29 14:56:40;;;;;;;4.47;1.67;;;16.10;99.90;;;;;;5055991;28;20192;-67
2021/09/29 14:59:08;;;;;;;2.37;1.40;;;16.40;99.90;;;;;;5052141;28;20193;-67
2021/09/29 15:01:36;;;;;;;1.70;1.33;;;16.50;99.90;;;;;;5062884;28;20655;-66
2021/09/29 15:04:06;;;;;;;3.37;1.63;;;16.40;99.90;;;;;;5060216;28;20199;-67
2021/09/29 15:06:36;;;;;;;2.63;1.63;;;16.20;99.90;;;;;;5053803;28;20207;-68
2021/09/29 15:09:05;;;;;;;3.33;1.80;;;15.80;99.90;;;;;;5057980;28;20215;-65
2021/09/29 15:11:34;;;;;;;4.43;1.63;;;15.40;99.90;;;;;;5055697;28;20200;-66
2021/09/29 15:14:10;;;;;;;3.40;1.97;;;15.10;99.90;;;;;;5057729;28;20247;-66
2021/09/29 15:16:46;;;;;;;8.93;2.17;;;14.90;99.90;;;;;;5056630;28;20192;-69
2021/09/29 15:22:24;;;;;;;2.33;2.00;;;13.80;99.90;;;;;;5059630;28;20727;-69
2021/09/29 15:25:00;;;;;;;2.30;1.90;;;13.70;99.90;;;;;;5052557;28;20223;-69
2021/09/29 15:30:23;;;;;;;2.63;1.83;;;13.90;99.90;;;;;;5052664;28;20216;-70
2021/09/29 15:49:50;;;;;;;3.83;1.70;;;13.00;99.90;;;;;;5054712;28;20344;-70
2021/09/29 15:55:09;;;;;;;4.13;1.80;;;12.90;99.90;;;;;;5039982;28;20227;-70
2021/09/29 16:00:42;;;;;;;2.23;1.60;;;12.80;99.90;;;;;;5039133;28;20232;-69
2021/09/29 16:03:22;;;;;;;2.43;1.50;;;12.80;99.90;;;;;;5051510;28;20254;-70